Versailles, OH

1:20 PM EDT on June 28, 2017 (GMT -0400)
Darke County

Weather History for KVES - February, 2014

Change the Weather History Date:

Thursday, February 27, 2014

  Actual Average (KDAY) Record (KDAY)
Temperature  
Mean Temperature 12 °F -  
Max Temperature 19 °F 43 °F 70 °F (1996)
Min Temperature 6 °F 26 °F -2 °F (1963)
Degree Days  
Heating Degree Days 52    
Moisture  
Dew Point 4 °F    
Average Humidity 61    
Maximum Humidity 85    
Minimum Humidity 42    
Precipitation  
Precipitation 0.00 in - - ()
Sea Level Pressure  
Sea Level Pressure 29.91 in    
Wind  
Wind Speed 16 mph (NW)    
Max Wind Speed 26 mph    
Max Gust Speed 37 mph    
Visibility 10 miles    
Events Snow    
Averages and records for this station are not official NWS values.
T = Trace of Precipitation, MM = Missing Value Source: NWS Daily Summary

Daily Weather History Graph

Daily Weather History Graph

Search for Another Location

Airport or City:

Trip Planner

Search our weather history database for the weather conditions in past years. The results will help you decide how hot, cold, wet, or windy it might be!

Date:

Astronomy

Feb. 27, 2014 Rise Set
Actual Time 7:14 AM EST 6:27 PM EST
Civil Twilight 6:47 AM EST 6:54 PM EST
Nautical Twilight 6:15 AM EST 7:26 PM EST
Astronomical Twilight 5:44 AM EST 7:57 PM EST
Moon 5:46 AM EST (2/27) 4:52 PM EST (2/27)
Length of Visible Light 12h 07m
Length of Day
11h 13m
Waning Crescent, 4% of the Moon is Illuminated
Feb 27
Waning Crescent
Mar 1
New
Mar 8
First Quarter
Mar 16
Full
Mar 23
Last Quarter

Hourly Weather History & Observations

Time (EST) Temp. Windchill Dew Point Humidity Pressure Visibility Wind Dir Wind Speed Gust Speed Precip Events Conditions
12:15 AM 15.8 °F -0.2 °F 5.0 °F 62% 29.78 in 10.0 mi WSW 17.3 mph 24.2 mph N/A   Clear
12:35 AM 15.8 °F 0.3 °F 5.0 °F 62% 29.76 in 10.0 mi WSW 16.1 mph 21.9 mph N/A   Clear
12:55 AM 15.8 °F -0.6 °F 5.0 °F 62% 29.75 in 10.0 mi WSW 18.4 mph 23.0 mph N/A   Clear
1:15 AM 15.8 °F 0.3 °F 5.0 °F 62% 29.74 in 10.0 mi WSW 16.1 mph 24.2 mph N/A   Clear
1:35 AM 15.8 °F 0.3 °F 5.0 °F 62% 29.72 in 10.0 mi WSW 16.1 mph 23.0 mph N/A   Scattered Clouds
1:55 AM 15.8 °F 0.3 °F 5.0 °F 62% 29.71 in 10.0 mi WSW 16.1 mph 24.2 mph N/A   Scattered Clouds
2:15 AM 15.8 °F 0.3 °F 5.0 °F 62% 29.70 in 10.0 mi SW 16.1 mph 26.5 mph N/A   Scattered Clouds
2:35 AM 15.8 °F -0.6 °F 5.0 °F 62% 29.70 in 10.0 mi WSW 18.4 mph 27.6 mph N/A   Scattered Clouds
2:55 AM 15.8 °F -0.2 °F 5.0 °F 62% 29.68 in 10.0 mi WSW 17.3 mph 24.2 mph N/A   Scattered Clouds
3:15 AM 17.6 °F 2.2 °F 5.0 °F 58% 29.67 in 10.0 mi WSW 17.3 mph 29.9 mph N/A   Mostly Cloudy
3:35 AM 17.6 °F 2.7 °F 5.0 °F 58% 29.66 in 10.0 mi WSW 16.1 mph 24.2 mph N/A   Overcast
3:55 AM 17.6 °F 2.2 °F 5.0 °F 58% 29.66 in 10.0 mi WSW 17.3 mph 23.0 mph N/A   Overcast
4:15 AM 17.6 °F 2.7 °F 6.8 °F 63% 29.66 in 10.0 mi WSW 16.1 mph 23.0 mph N/A   Overcast
4:35 AM 17.6 °F 4.3 °F 6.8 °F 63% 29.67 in 10.0 mi WSW 12.7 mph 23.0 mph N/A   Mostly Cloudy
4:55 AM 19.4 °F 2.8 °F 8.6 °F 63% 29.66 in 10.0 mi WSW 21.9 mph 28.8 mph N/A   Mostly Cloudy
5:15 AM 19.4 °F 3.2 °F 8.6 °F 63% 29.67 in 10.0 mi West 20.7 mph 29.9 mph N/A   Mostly Cloudy
5:35 AM 19.4 °F 2.5 °F 8.6 °F 63% 29.67 in 10.0 mi West 23.0 mph 32.2 mph N/A   Overcast
5:55 AM 19.4 °F 3.6 °F 10.4 °F 68% 29.68 in 10.0 mi West 19.6 mph - N/A   Overcast
6:15 AM 19.4 °F 2.1 °F 8.6 °F 63% 29.68 in 10.0 mi West 24.2 mph 34.5 mph N/A   Overcast
6:35 AM 19.4 °F 1.8 °F 8.6 °F 63% 29.69 in 10.0 mi WNW 25.3 mph 34.5 mph N/A   Mostly Cloudy
6:55 AM 19.4 °F 2.5 °F 10.4 °F 68% 29.70 in 10.0 mi WNW 23.0 mph 34.5 mph N/A   Mostly Cloudy
7:15 AM 17.6 °F -0.6 °F 8.6 °F 68% 29.72 in 10.0 mi WNW 25.3 mph 36.8 mph N/A   Scattered Clouds
7:35 AM 17.6 °F 0.1 °F 5.0 °F 58% 29.73 in 10.0 mi West 23.0 mph 31.1 mph N/A   Scattered Clouds
7:55 AM 17.6 °F 2.2 °F 8.6 °F 68% 29.75 in 7.0 mi WNW 17.3 mph 26.5 mph N/A Snow Light Snow
8:15 AM 17.6 °F 3.7 °F 8.6 °F 68% 29.77 in 10.0 mi WNW 13.8 mph 25.3 mph N/A   Mostly Cloudy
8:35 AM 17.6 °F 0.9 °F 5.0 °F 58% 29.79 in 10.0 mi WNW 20.7 mph 28.8 mph N/A   Scattered Clouds
8:55 AM 17.6 °F 0.1 °F 5.0 °F 58% 29.81 in 10.0 mi WNW 23.0 mph 32.2 mph N/A   Scattered Clouds
9:15 AM 17.6 °F 0.1 °F 5.0 °F 58% 29.83 in 10.0 mi WNW 23.0 mph 31.1 mph N/A   Scattered Clouds
9:35 AM 15.8 °F -3.1 °F 6.8 °F 68% 29.85 in 4.0 mi NW 25.3 mph 34.5 mph N/A   Haze
9:55 AM 17.6 °F 0.1 °F 3.2 °F 53% 29.87 in 10.0 mi WNW 23.0 mph 32.2 mph N/A   Mostly Cloudy
10:15 AM 15.8 °F -3.1 °F 1.4 °F 53% 29.88 in 10.0 mi WNW 25.3 mph 32.2 mph N/A   Mostly Cloudy
10:35 AM 17.6 °F -1.0 °F -0.4 °F 45% 29.90 in 10.0 mi WNW 26.5 mph 33.4 mph N/A   Scattered Clouds
10:55 AM 17.6 °F 0.5 °F -0.4 °F 45% 29.92 in 10.0 mi NW 21.9 mph 28.8 mph N/A   Clear
11:15 AM 17.6 °F 0.5 °F -0.4 °F 45% 29.93 in 10.0 mi NW 21.9 mph 28.8 mph N/A   Scattered Clouds
11:35 AM 17.6 °F -1.0 °F -0.4 °F 45% 29.94 in 10.0 mi NW 26.5 mph 31.1 mph N/A   Mostly Cloudy
11:55 AM 17.6 °F 1.3 °F -0.4 °F 45% 29.95 in 10.0 mi NNW 19.6 mph 32.2 mph N/A   Mostly Cloudy
12:15 PM 17.6 °F 1.7 °F -0.4 °F 45% 29.97 in 10.0 mi NW 18.4 mph 25.3 mph N/A   Mostly Cloudy
12:35 PM 17.6 °F 1.7 °F -0.4 °F 45% 29.97 in 10.0 mi NW 18.4 mph 27.6 mph N/A   Mostly Cloudy
12:55 PM 17.6 °F 0.9 °F -0.4 °F 45% 29.98 in 10.0 mi NW 20.7 mph 26.5 mph N/A   Mostly Cloudy
1:15 PM 17.6 °F 1.3 °F -0.4 °F 45% 29.99 in 10.0 mi NW 19.6 mph 26.5 mph N/A   Scattered Clouds
1:35 PM 17.6 °F 3.2 °F -0.4 °F 45% 29.99 in 10.0 mi NNW 15.0 mph 26.5 mph N/A   Scattered Clouds
1:55 PM 19.4 °F 4.5 °F -0.4 °F 42% 30.00 in 10.0 mi NNW 17.3 mph 23.0 mph N/A   Scattered Clouds
2:15 PM 17.6 °F 3.7 °F 1.4 °F 49% 30.00 in 10.0 mi NNW 13.8 mph 23.0 mph N/A   Mostly Cloudy
2:35 PM 17.6 °F 5.0 °F 1.4 °F 49% 30.01 in 10.0 mi WNW 11.5 mph 21.9 mph N/A   Scattered Clouds
2:55 PM 17.6 °F 3.7 °F 1.4 °F 49% 30.02 in 10.0 mi NNW 13.8 mph 21.9 mph N/A   Mostly Cloudy
3:15 PM 17.6 °F 2.7 °F 1.4 °F 49% 30.02 in 10.0 mi NW 16.1 mph 21.9 mph N/A   Mostly Cloudy
3:35 PM 17.6 °F 3.7 °F 5.0 °F 58% 30.03 in 10.0 mi North 13.8 mph 19.6 mph N/A   Mostly Cloudy
3:55 PM 17.6 °F 2.2 °F 5.0 °F 58% 30.04 in 10.0 mi NNW 17.3 mph 24.2 mph N/A   Overcast
4:15 PM 17.6 °F 3.7 °F 5.0 °F 58% 30.03 in 10.0 mi NNW 13.8 mph 18.4 mph N/A   Mostly Cloudy
4:35 PM 15.8 °F 3.4 °F 3.2 °F 58% 30.04 in 10.0 mi NW 10.4 mph - N/A   Scattered Clouds
4:55 PM 17.6 °F 5.7 °F 1.4 °F 49% 30.05 in 10.0 mi North 10.4 mph 19.6 mph N/A   Scattered Clouds
5:15 PM 17.6 °F 4.3 °F 5.0 °F 58% 30.05 in 10.0 mi North 12.7 mph 17.3 mph N/A   Mostly Cloudy
5:35 PM 15.8 °F 4.2 °F 3.2 °F 58% 30.06 in 10.0 mi NNW 9.2 mph - N/A   Mostly Cloudy
5:55 PM 14.0 °F 2.9 °F 1.4 °F 57% 30.06 in 10.0 mi NNW 8.1 mph - N/A   Scattered Clouds
6:10 PM 14.0 °F 1.2 °F -0.4 °F 53% 30.07 in 10.0 mi NNW 10.4 mph - N/A   Clear
6:35 PM 12.2 °F -1.0 °F 3.2 °F 67% 30.08 in 10.0 mi North 10.4 mph - N/A   Clear
6:55 PM 12.2 °F 0.7 °F 3.2 °F 67% 30.09 in 10.0 mi North 8.1 mph - N/A   Clear
7:15 PM 12.2 °F 2.9 °F 1.4 °F 62% 30.10 in 10.0 mi NNW 5.8 mph - N/A   Clear
7:35 PM 12.2 °F 0.7 °F 3.2 °F 67% 30.11 in 10.0 mi North 8.1 mph - N/A   Clear
7:55 PM 10.4 °F -0.4 °F 3.2 °F 73% 30.11 in 10.0 mi North 6.9 mph - N/A   Clear
8:15 PM 10.4 °F 0.8 °F 3.2 °F 73% 30.12 in 10.0 mi North 5.8 mph - N/A   Clear
8:35 PM 10.4 °F -0.4 °F 3.2 °F 73% 30.12 in 10.0 mi North 6.9 mph - N/A   Clear
8:55 PM 10.4 °F 2.2 °F 3.2 °F 73% 30.12 in 10.0 mi North 4.6 mph - N/A   Clear
9:15 PM 8.6 °F 0.1 °F 3.2 °F 79% 30.13 in 10.0 mi North 4.6 mph - N/A   Clear
9:35 PM 8.6 °F 2.0 °F 3.2 °F 79% 30.14 in 10.0 mi NNE 3.5 mph - N/A   Clear
9:55 PM 8.6 °F 2.0 °F 1.4 °F 73% 30.14 in 10.0 mi NNE 3.5 mph - N/A   Clear
10:15 PM 8.6 °F -1.3 °F 1.4 °F 73% 30.14 in 10.0 mi NNE 5.8 mph - N/A   Clear
10:35 PM 8.6 °F 2.0 °F 1.4 °F 73% 30.15 in 10.0 mi NNE 3.5 mph - N/A   Clear
10:50 PM 6.8 °F -0.1 °F 1.4 °F 79% 30.15 in 10.0 mi NNE 3.5 mph - N/A   Clear
11:15 PM 6.8 °F -0.1 °F 3.2 °F 85% 30.15 in 10.0 mi NE 3.5 mph - N/A   Clear
11:35 PM 6.8 °F -2.0 °F 1.4 °F 79% 30.15 in 10.0 mi NNE 4.6 mph - N/A   Clear
11:55 PM 6.8 °F -0.1 °F 1.4 °F 79% 30.16 in 10.0 mi NE 3.5 mph - N/A   Clear